Hauptseite
METAR-TAF:

METAR-TAF

Flughäfen :

Flughafen Braunschweig-Wolfsburg

Braunschweig, Deutschland

Breite: 52-18N, Länge: 010-27E, Höhe: 81 m

Beobachtung

Neuester Wetterbericht von vor 30 Minuten, um 01:20 UTC
Windstille
Temperatur 1°C
Luftfeuchtigkeit 93%
Luftdruck 1017 hPa
Sichtweite 10 km oder mehr

METAR: EDVE 080120Z AUTO 00000KT 9999 // BKN046/// 01/00 Q1017

Zeit: 03:50 (01:50 UTC)

Prognose

Neuester Wetterbericht von vor 8 Stunden und 50 Minuten, um 17:00 UTC
Gültige Prognose vom 07 um 18 UTC bis 07 um 21 UTC
Wind 10 kt aus West/Nordwest
Sichtweite 10 km oder mehr
Aufgelockert bewölkt in der Höhe von 3000 ft
Übergehend zu
vom 07 um 18 UTC bis 07 um 21 UTC
Wind 5 kt aus West/Südwest

TAF: EDVE 071700Z 0718/0721 29010KT 9999 SCT030 BECMG 0718/0721 25005KT

Wetterbeobachtungen und Prognosen von mehr als 4000 Flughäfen (METAR und TAF Bericht).

Die verfügbaren Stationen werden durch gelbe und rote Markierungen auf der Karte dargestellt.

Führen Sie die Maus auf sie, um den Namen der Station zu sehen.

Darauf klicken, um die Beobachtung von Wetterbeobachtungen und Prognosen zu sehen.

Um die Karte zu ändern : klicken Sie auf den grünen Tasten mit einem schwarzen Kreuz Zum Vergrößern, auf den grünen Button mit einem Gedankenstrich zu verkleinern, oder auf die grünen Pfeile für benachbarte Karten.


METAR-TAF: